Terminal Aerodrome Forecast
Issued by NWS

Home | Current Version | Previous Version | Text Only | Print | Product List | Glossary On
Versions: 1 2 3 4 5 6 7 8 9 10 11 12 13 14 15 16 17 18 19 20 21 22 23
000
FTUS44 KBMX 211201 AAA
TAFMGM
TAF AMD
KMGM 211201Z 2112/2212 10009KT P6SM VCSH SCT025 BKN050
      TEMPO 2112/2116 6SM -RA SCT015 BKN025 OVC035
     FM211900 10009KT P6SM VCTS SCT020CB BKN050
     FM212100 10009KT P6SM TSRA SCT025CB OVC050
     FM220100 11007KT P6SM SHRA VCTS BKN050CB OVC100
     FM220600 13004KT P6SM OVC015
     FM220800 09006KT 4SM BR OVC007=

USA.gov is the U.S. government's official web portal to all federal, state and local government web resources and services.